Time;durP1;ratioP1;P1;durP2;ratioP2;P2;SDS_P1;SDS_P2;PMS_P1;PMS_P2;Temp;Humidity;BMP_temperature;BMP_pressure;BME280_temperature;BME280_humidity;BME280_pressure;Samples;Min_cycle;Max_cycle;Signal;HPM_P1;HPM_P2
2022/02/28 18:00:06;;;;;;;6.63;4.43;;;8.70;99.90;;;;;;5176109;27;20110;-87
2022/02/28 18:02:32;;;;;;;8.88;5.32;;;8.40;99.90;;;;;;5182418;27;20480;-90
2022/02/28 18:04:58;;;;;;;8.57;5.32;;;8.40;99.90;;;;;;5172945;27;20098;-86
2022/02/28 18:07:24;;;;;;;7.38;5.15;;;8.40;99.90;;;;;;5171133;27;20062;-90
2022/02/28 18:09:49;;;;;;;7.65;5.45;;;8.30;99.90;;;;;;5182672;27;20044;-88
2022/02/28 18:12:15;;;;;;;9.73;6.38;;;8.20;99.90;;;;;;5161124;27;20034;-89
2022/02/28 18:14:45;;;;;;;8.93;6.00;;;8.20;99.90;;;;;;5164008;27;20098;-87
2022/02/28 18:17:13;;;;;;;7.97;5.57;;;8.20;99.90;;;;;;5180184;27;20015;-87
2022/02/28 18:19:39;;;;;;;10.45;6.53;;;8.10;99.90;;;;;;5171771;27;20472;-89
2022/02/28 18:22:04;;;;;;;9.35;6.22;;;8.00;99.90;;;;;;5166720;27;20027;-88
2022/02/28 18:24:30;;;;;;;10.25;6.43;;;8.00;99.90;;;;;;5148922;27;20036;-89
2022/02/28 18:26:56;;;;;;;9.90;6.20;;;7.90;99.90;;;;;;5177574;27;20026;-86
2022/02/28 18:29:22;;;;;;;10.32;6.97;;;7.80;99.90;;;;;;5159178;27;20116;-90
2022/02/28 18:31:47;;;;;;;9.43;6.07;;;7.80;99.90;;;;;;5169460;27;20019;-91
2022/02/28 18:34:13;;;;;;;10.02;6.60;;;7.70;99.90;;;;;;5186495;27;20110;-88
2022/02/28 18:36:43;;;;;;;12.50;7.22;;;7.70;99.90;;;;;;5157290;27;20023;-85
2022/02/28 18:39:10;;;;;;;9.80;6.57;;;7.60;99.90;;;;;;5167488;27;20519;-85
2022/02/28 18:41:37;;;;;;;13.63;7.88;;;7.60;99.90;;;;;;5177583;27;20109;-88
2022/02/28 18:44:04;;;;;;;13.05;7.45;;;7.60;99.90;;;;;;5165877;27;20055;-88
2022/02/28 18:46:30;;;;;;;13.25;7.75;;;7.50;99.90;;;;;;5183007;27;20014;-87
2022/02/28 18:48:58;;;;;;;17.23;8.20;;;7.40;99.90;;;;;;5184029;27;20026;-88
2022/02/28 18:51:25;;;;;;;13.95;7.97;;;7.30;99.90;;;;;;5166776;27;20023;-90
2022/02/28 18:53:52;;;;;;;14.88;7.88;;;7.30;99.90;;;;;;5164664;27;20525;-86
2022/02/28 18:56:21;;;;;;;14.63;7.95;;;7.30;99.90;;;;;;5184430;27;20037;-86
2022/02/28 18:58:48;;;;;;;13.98;7.53;;;7.20;99.90;;;;;;5196249;27;20070;-92
2022/02/28 19:01:14;;;;;;;14.15;8.20;;;7.30;99.90;;;;;;5163382;27;20064;-91
2022/02/28 19:03:41;;;;;;;13.00;8.15;;;7.20;99.90;;;;;;5176893;27;20234;-89
2022/02/28 19:06:07;;;;;;;16.00;8.77;;;7.30;99.90;;;;;;5131543;27;20079;-89
2022/02/28 19:08:33;;;;;;;16.92;9.38;;;7.30;99.90;;;;;;5142992;27;20090;-86
2022/02/28 19:11:00;;;;;;;15.65;9.25;;;7.30;99.90;;;;;;5162127;27;20023;-86
2022/02/28 19:13:27;;;;;;;13.07;8.88;;;7.30;99.90;;;;;;5154663;27;20067;-86
2022/02/28 19:15:54;;;;;;;16.65;8.80;;;7.30;99.90;;;;;;5183555;27;20101;-89
2022/02/28 19:18:21;;;;;;;14.80;7.75;;;7.20;99.90;;;;;;5172884;27;20052;-86
2022/02/28 19:20:48;;;;;;;15.88;8.68;;;7.20;99.90;;;;;;5153316;27;20017;-89
2022/02/28 19:23:15;;;;;;;13.10;8.27;;;7.30;99.90;;;;;;5172807;27;20014;-86
2022/02/28 19:25:41;;;;;;;14.30;8.93;;;7.20;99.90;;;;;;5185166;27;20076;-86
2022/02/28 19:28:09;;;;;;;19.13;9.48;;;7.20;99.90;;;;;;5168016;27;20026;-85
2022/02/28 19:30:34;;;;;;;13.43;7.65;;;7.20;99.90;;;;;;5167313;27;20056;-86
2022/02/28 19:33:00;;;;;;;14.45;8.95;;;7.10;99.90;;;;;;5166214;27;20022;-89
2022/02/28 19:35:28;;;;;;;20.05;10.48;;;7.10;99.90;;;;;;5162722;27;20026;-86
2022/02/28 19:37:54;;;;;;;15.35;9.23;;;7.10;99.90;;;;;;5156452;27;20031;-88
2022/02/28 19:40:20;;;;;;;14.85;8.82;;;7.10;99.90;;;;;;5131245;27;20505;-86
2022/02/28 19:42:46;;;;;;;16.77;9.88;;;7.00;99.90;;;;;;5144079;27;20015;-87
2022/02/28 19:45:14;;;;;;;17.55;10.13;;;7.00;99.90;;;;;;5181334;27;20038;-86
2022/02/28 19:47:40;;;;;;;19.60;11.27;;;7.10;99.90;;;;;;5134322;27;20048;-89
2022/02/28 19:50:06;;;;;;;19.42;10.77;;;7.00;99.90;;;;;;5141427;27;20042;-89
2022/02/28 19:52:32;;;;;;;17.38;10.55;;;7.00;99.90;;;;;;5145580;27;20039;-89
2022/02/28 19:54:57;;;;;;;19.33;10.30;;;7.00;99.90;;;;;;5148299;27;20102;-92
2022/02/28 19:57:24;;;;;;;16.02;9.95;;;7.00;99.90;;;;;;5130233;27;20031;-89
2022/02/28 19:59:51;;;;;;;15.15;9.63;;;6.90;99.90;;;;;;5122237;27;20056;-87
2022/02/28 20:02:18;;;;;;;15.35;9.73;;;6.90;99.90;;;;;;5137424;27;20084;-90
2022/02/28 20:04:44;;;;;;;17.30;10.15;;;6.90;99.90;;;;;;5141979;27;20038;-90
2022/02/28 20:07:09;;;;;;;12.98;8.50;;;6.80;99.90;;;;;;5163348;27;20019;-90
2022/02/28 20:09:36;;;;;;;15.38;9.45;;;6.70;99.90;;;;;;5153607;27;20018;-89
2022/02/28 20:12:02;;;;;;;13.65;9.05;;;6.70;99.90;;;;;;5147954;27;20023;-86
2022/02/28 20:14:27;;;;;;;15.20;9.20;;;6.60;99.90;;;;;;5164290;27;20023;-88
2022/02/28 20:16:54;;;;;;;13.57;7.85;;;6.60;99.90;;;;;;5159794;27;20554;-89
2022/02/28 20:19:20;;;;;;;11.80;7.78;;;6.60;99.90;;;;;;5157913;27;20065;-86
2022/02/28 20:21:46;;;;;;;12.48;7.32;;;6.50;99.90;;;;;;5158318;27;20026;-92
2022/02/28 20:24:12;;;;;;;10.77;7.38;;;6.40;99.90;;;;;;5149106;27;20141;-91
2022/02/28 20:26:37;;;;;;;11.55;7.78;;;6.30;99.90;;;;;;5148869;27;20057;-86
2022/02/28 20:29:03;;;;;;;10.18;6.95;;;6.30;99.90;;;;;;5159391;27;20857;-86
2022/02/28 20:31:30;;;;;;;10.57;7.07;;;6.20;99.90;;;;;;5122293;27;20073;-91
2022/02/28 20:33:56;;;;;;;11.70;7.15;;;6.10;99.90;;;;;;5138027;27;20030;-88
2022/02/28 20:36:22;;;;;;;9.57;6.95;;;5.90;99.90;;;;;;5136075;27;20051;-88
2022/02/28 20:38:50;;;;;;;12.07;7.03;;;5.80;99.90;;;;;;5155788;27;20106;-89
2022/02/28 20:41:17;;;;;;;11.20;7.68;;;5.60;99.90;;;;;;5159563;27;20042;-89
2022/02/28 20:43:44;;;;;;;11.35;6.88;;;5.50;99.90;;;;;;5155294;27;20022;-88
2022/02/28 20:46:12;;;;;;;11.52;7.45;;;5.40;99.90;;;;;;5128330;27;20063;-89
2022/02/28 20:48:41;;;;;;;11.02;7.20;;;5.40;99.90;;;;;;5177250;22;20136;-91
2022/02/28 20:51:09;;;;;;;11.63;7.22;;;5.30;99.90;;;;;;5058565;28;20594;-92
2022/02/28 20:53:36;;;;;;;9.10;6.15;;;5.30;99.90;;;;;;5061796;28;20084;-89
2022/02/28 20:56:07;;;;;;;10.60;7.25;;;5.20;99.90;;;;;;5064783;28;20143;-88
2022/02/28 20:58:34;;;;;;;11.77;7.70;;;5.20;99.90;;;;;;5062502;28;20671;-91
2022/02/28 21:01:00;;;;;;;11.95;7.13;;;5.20;99.90;;;;;;5053198;28;20029;-92
2022/02/28 21:03:27;;;;;;;17.48;9.70;;;5.20;99.90;;;;;;5053959;28;20466;-90
2022/02/28 21:05:53;;;;;;;21.85;11.88;;;5.30;99.90;;;;;;5033066;28;20733;-91
2022/02/28 21:08:21;;;;;;;22.75;11.75;;;5.50;99.90;;;;;;5037620;28;20029;-88
2022/02/28 21:10:50;;;;;;;20.80;12.70;;;5.60;99.90;;;;;;5043787;28;20022;-88
2022/02/28 21:13:19;;;;;;;20.45;11.63;;;5.70;99.90;;;;;;5060497;28;20028;-89
2022/02/28 21:15:45;;;;;;;19.88;11.43;;;5.70;99.90;;;;;;5047961;28;20036;-91
2022/02/28 21:18:12;;;;;;;17.60;10.85;;;5.70;99.90;;;;;;5052347;28;20046;-91
2022/02/28 21:20:38;;;;;;;16.35;10.93;;;5.70;99.90;;;;;;5040954;28;20060;-89
2022/02/28 21:23:04;;;;;;;17.00;10.43;;;5.70;99.90;;;;;;5040947;28;20022;-90
2022/02/28 21:25:31;;;;;;;16.75;10.88;;;5.70;99.90;;;;;;5046837;28;20022;-89
2022/02/28 21:27:56;;;;;;;17.77;11.30;;;5.80;99.90;;;;;;5063923;28;20021;-89
2022/02/28 21:30:22;;;;;;;17.45;10.85;;;5.80;99.90;;;;;;5066738;28;20585;-88
2022/02/28 21:32:50;;;;;;;16.17;11.00;;;5.80;99.90;;;;;;5066908;28;20016;-89
2022/02/28 21:35:16;;;;;;;17.15;10.60;;;5.80;99.90;;;;;;5046483;28;20449;-89
2022/02/28 21:37:42;;;;;;;15.52;10.60;;;5.80;99.90;;;;;;5043685;28;20009;-85
2022/02/28 21:40:10;;;;;;;15.43;10.07;;;5.80;99.90;;;;;;5060988;28;20048;-85
2022/02/28 21:42:36;;;;;;;18.83;11.10;;;5.80;99.90;;;;;;5061050;28;20033;-85
2022/02/28 21:45:02;;;;;;;16.23;11.20;;;5.70;99.90;;;;;;5060021;28;20078;-89
2022/02/28 21:47:33;;;;;;;15.10;10.13;;;5.80;99.90;;;;;;5036365;28;20036;-86
2022/02/28 21:49:59;;;;;;;15.80;9.25;;;5.80;99.90;;;;;;5062756;28;20036;-86
2022/02/28 21:52:25;;;;;;;16.13;10.00;;;5.80;99.90;;;;;;5062578;28;20045;-85
2022/02/28 21:54:54;;;;;;;18.65;11.02;;;5.70;99.90;;;;;;5062721;28;20070;-85
2022/02/28 21:57:19;;;;;;;17.17;10.45;;;5.70;99.90;;;;;;5045692;28;20463;-85
2022/02/28 21:59:46;;;;;;;15.02;9.60;;;5.70;99.90;;;;;;5061525;28;20096;-86
2022/02/28 22:02:14;;;;;;;18.00;10.52;;;5.70;99.90;;;;;;5044774;28;20025;-86
2022/02/28 22:04:42;;;;;;;14.90;10.15;;;5.60;99.90;;;;;;5033237;28;20025;-87
2022/02/28 22:07:11;;;;;;;17.23;10.45;;;5.60;99.90;;;;;;5024624;28;20022;-86
2022/02/28 22:09:38;;;;;;;16.60;10.75;;;5.60;99.90;;;;;;5041242;28;20040;-85
2022/02/28 22:12:05;;;;;;;17.67;10.02;;;5.60;99.90;;;;;;5041091;28;20022;-86
2022/02/28 22:14:31;;;;;;;14.82;10.07;;;5.60;99.90;;;;;;5037728;28;20495;-87
2022/02/28 22:16:57;;;;;;;15.70;10.60;;;5.60;99.90;;;;;;5045610;28;20070;-86
2022/02/28 22:19:22;;;;;;;14.38;10.32;;;5.60;99.90;;;;;;5061949;28;20112;-87
2022/02/28 22:21:51;;;;;;;14.27;9.45;;;5.60;99.90;;;;;;5058089;28;20036;-86
2022/02/28 22:24:18;;;;;;;16.88;10.50;;;5.60;99.90;;;;;;5042976;28;20409;-86
2022/02/28 22:26:43;;;;;;;13.93;9.45;;;5.50;99.90;;;;;;5024636;28;20146;-88
2022/02/28 22:29:09;;;;;;;17.98;10.43;;;5.50;99.90;;;;;;5041367;28;20044;-90
2022/02/28 22:31:35;;;;;;;14.68;9.70;;;5.40;99.90;;;;;;5040273;28;20034;-89
2022/02/28 22:34:00;;;;;;;17.58;10.10;;;5.40;99.90;;;;;;5042465;28;20037;-88
2022/02/28 22:36:27;;;;;;;16.33;10.02;;;5.40;99.90;;;;;;5053916;28;20028;-86
2022/02/28 22:38:53;;;;;;;13.20;8.85;;;5.30;99.90;;;;;;5062136;28;20045;-86
2022/02/28 22:41:19;;;;;;;16.05;10.05;;;5.30;99.90;;;;;;5044453;28;20047;-87
2022/02/28 22:43:45;;;;;;;14.00;8.88;;;5.30;99.90;;;;;;5061474;28;20032;-86
2022/02/28 22:46:12;;;;;;;14.25;8.27;;;5.20;99.90;;;;;;5063025;28;20021;-86
2022/02/28 22:48:40;;;;;;;14.95;9.77;;;5.20;99.90;;;;;;5055515;28;20048;-86
2022/02/28 22:51:05;;;;;;;13.82;9.25;;;5.10;99.90;;;;;;5050962;28;20073;-86
2022/02/28 22:53:34;;;;;;;11.23;7.70;;;5.10;99.90;;;;;;5044252;28;20530;-86
2022/02/28 22:56:00;;;;;;;12.77;8.35;;;5.10;99.90;;;;;;5050802;28;20029;-86
2022/02/28 22:58:26;;;;;;;13.05;8.38;;;5.00;99.90;;;;;;5053805;28;20140;-84
2022/02/28 23:00:52;;;;;;;12.73;7.95;;;5.00;99.90;;;;;;5059244;28;20063;-87
2022/02/28 23:06:04;;;;;;;12.68;8.10;;;4.90;99.90;;;;;;5064816;28;20059;-87
2022/02/28 23:19:28;;;;;;;10.43;6.05;;;4.50;99.90;;;;;;5063132;28;20051;-88
2022/02/28 23:21:53;;;;;;;10.85;6.53;;;4.50;99.90;;;;;;5043322;28;20080;-87
2022/02/28 23:24:24;;;;;;;9.30;5.75;;;4.40;99.90;;;;;;5052390;28;20028;-88
2022/02/28 23:26:50;;;;;;;9.50;6.35;;;4.30;99.90;;;;;;5064307;28;20017;-88
2022/02/28 23:29:16;;;;;;;10.93;6.75;;;4.30;99.90;;;;;;5064760;28;20041;-87
2022/02/28 23:31:41;;;;;;;13.93;7.32;;;4.20;99.90;;;;;;5065399;28;20053;-86
2022/02/28 23:34:07;;;;;;;11.90;6.82;;;4.20;99.90;;;;;;5045807;28;20101;-87
2022/02/28 23:36:33;;;;;;;10.10;6.57;;;4.20;99.90;;;;;;5054289;28;20100;-86
2022/02/28 23:39:01;;;;;;;10.75;7.05;;;4.10;99.90;;;;;;5065401;28;20032;-87
2022/02/28 23:41:26;;;;;;;11.60;7.53;;;4.10;99.90;;;;;;5061937;28;20048;-87
2022/02/28 23:43:52;;;;;;;11.68;6.43;;;4.00;99.90;;;;;;5040250;28;20655;-88
2022/02/28 23:46:17;;;;;;;10.80;7.10;;;4.00;99.90;;;;;;5033791;28;20041;-91
2022/02/28 23:48:43;;;;;;;10.05;6.13;;;4.00;99.90;;;;;;5045397;28;20063;-92
2022/02/28 23:51:09;;;;;;;12.40;7.32;;;3.90;99.90;;;;;;5053613;28;20031;-91
2022/02/28 23:53:34;;;;;;;11.07;7.18;;;3.90;99.90;;;;;;5052594;28;20071;-90
2022/02/28 23:56:00;;;;;;;14.15;8.18;;;3.90;99.90;;;;;;5039612;28;20032;-90
2022/02/28 23:58:25;;;;;;;12.13;7.25;;;4.00;99.90;;;;;;5046428;28;20040;-88
